Time;durP1;ratioP1;P1;durP2;ratioP2;P2;SDS_P1;SDS_P2;PMS_P1;PMS_P2;Temp;Humidity;BMP_temperature;BMP_pressure;BME280_temperature;BME280_humidity;BME280_pressure;Samples;Min_cycle;Max_cycle;Signal;HPM_P1;HPM_P2
2023/06/20 00:05:28;;;;;;;;;;;26.20;41.60;;;;;;20835880;28;19925;-57
2023/06/20 00:15:29;;;;;;;;;;;26.10;42.10;;;;;;20833225;28;20275;-57
2023/06/20 00:25:29;;;;;;;;;;;26.00;42.20;;;;;;20833044;28;20377;-57
2023/06/20 00:35:30;;;;;;;;;;;25.80;42.70;;;;;;20833505;28;20018;-58
2023/06/20 00:45:34;;;;;;;;;;;25.70;42.90;;;;;;20832706;28;20026;-57
2023/06/20 00:55:35;;;;;;;;;;;25.70;43.50;;;;;;20832391;28;20052;-56
2023/06/20 01:05:36;;;;;;;;;;;25.70;43.70;;;;;;20830113;28;19976;-56
2023/06/20 01:15:37;;;;;;;;;;;25.50;44.20;;;;;;20829769;28;19932;-56
2023/06/20 01:25:37;;;;;;;;;;;25.40;47.50;;;;;;20830399;28;20279;-56
2023/06/20 01:35:39;;;;;;;;;;;25.30;49.70;;;;;;20830558;28;19929;-56
2023/06/20 01:45:42;;;;;;;;;;;25.30;49.90;;;;;;20830233;28;20393;-56
2023/06/20 01:55:43;;;;;;;;;;;25.10;51.60;;;;;;20829908;28;19929;-56
2023/06/20 02:05:44;;;;;;;;;;;25.10;50.90;;;;;;20829746;28;20012;-56
2023/06/20 02:15:45;;;;;;;;;;;24.90;48.60;;;;;;20829473;28;20306;-57
2023/06/20 02:25:46;;;;;;;;;;;24.60;47.60;;;;;;20839619;28;20015;-57
2023/06/20 02:35:48;;;;;;;;;;;24.40;49.10;;;;;;20842823;28;19925;-56
2023/06/20 02:45:51;;;;;;;;;;;24.30;50.20;;;;;;20840567;28;19932;-55
2023/06/20 02:55:57;;;;;;;;;;;24.10;51.50;;;;;;20841013;28;19925;-56
2023/06/20 03:05:58;;;;;;;;;;;23.80;52.10;;;;;;20838878;28;19929;-56
2023/06/20 03:15:58;;;;;;;;;;;23.60;52.70;;;;;;20838060;28;19995;-56
2023/06/20 03:25:59;;;;;;;;;;;23.60;52.80;;;;;;20837450;28;20349;-57
2023/06/20 03:36:00;;;;;;;;;;;23.60;52.60;;;;;;20836944;28;19971;-56
2023/06/20 03:46:01;;;;;;;;;;;23.50;53.00;;;;;;20837158;28;19979;-56
2023/06/20 03:56:02;;;;;;;;;;;23.30;53.60;;;;;;20836448;28;19925;-56
2023/06/20 04:06:03;;;;;;;;;;;22.90;54.70;;;;;;20835654;28;19948;-55
2023/06/20 04:16:04;;;;;;;;;;;23.00;55.00;;;;;;20834875;28;19925;-57
2023/06/20 04:26:04;;;;;;;;;;;23.10;55.10;;;;;;20834143;28;20023;-56
2023/06/20 04:36:05;;;;;;;;;;;22.80;55.80;;;;;;20832906;28;20032;-56
2023/06/20 04:46:06;;;;;;;;;;;22.80;55.80;;;;;;20832655;28;19929;-57
2023/06/20 04:56:07;;;;;;;;;;;22.70;56.40;;;;;;20832093;28;19931;-57
2023/06/20 05:06:08;;;;;;;;;;;22.70;56.40;;;;;;20831820;28;19976;-56
2023/06/20 05:16:08;;;;;;;;;;;22.70;56.50;;;;;;20830515;28;19973;-57
2023/06/20 05:26:10;;;;;;;;;;;22.70;56.70;;;;;;20829130;28;20000;-57
2023/06/20 05:36:10;;;;;;;;;;;22.80;56.70;;;;;;20830301;28;19925;-57
2023/06/20 05:46:11;;;;;;;;;;;22.70;56.70;;;;;;20829745;28;19931;-56
2023/06/20 05:56:13;;;;;;;;;;;22.80;56.90;;;;;;20834950;28;20275;-57
2023/06/20 06:06:14;;;;;;;;;;;22.70;57.20;;;;;;20844351;28;20437;-56
2023/06/20 06:16:15;;;;;;;;;;;22.80;57.00;;;;;;20843518;28;19925;-57
2023/06/20 06:26:16;;;;;;;;;;;22.80;57.30;;;;;;20841846;28;19929;-56
2023/06/20 06:36:17;;;;;;;;;;;23.00;57.10;;;;;;20842137;28;19975;-57
2023/06/20 06:46:17;;;;;;;;;;;23.00;57.00;;;;;;20840924;28;19925;-57
2023/06/20 06:56:18;;;;;;;;;;;22.90;57.40;;;;;;20840530;28;19964;-57
2023/06/20 07:06:19;;;;;;;;;;;23.60;56.30;;;;;;20838867;28;19964;-58
2023/06/20 07:16:20;;;;;;;;;;;24.40;54.80;;;;;;20839003;28;20001;-58
2023/06/20 07:26:21;;;;;;;;;;;24.90;53.10;;;;;;20836622;28;20440;-57
2023/06/20 07:36:21;;;;;;;;;;;25.30;52.10;;;;;;20836547;28;19969;-56
2023/06/20 07:46:22;;;;;;;;;;;25.90;49.80;;;;;;20835832;28;19925;-56
2023/06/20 07:56:22;;;;;;;;;;;26.30;49.10;;;;;;20834870;28;19928;-56
2023/06/20 08:06:23;;;;;;;;;;;26.70;48.10;;;;;;20834871;28;19925;-57
2023/06/20 08:16:24;;;;;;;;;;;27.10;47.40;;;;;;20834456;28;19936;-56
2023/06/20 08:26:24;;;;;;;;;;;27.20;46.20;;;;;;20832823;28;19929;-56
2023/06/20 08:36:26;;;;;;;;;;;27.10;45.20;;;;;;20829943;28;20127;-57
2023/06/20 08:46:27;;;;;;;;;;;27.30;45.40;;;;;;20832206;28;19925;-57
2023/06/20 08:56:28;;;;;;;;;;;27.60;45.00;;;;;;20831416;28;19972;-57
2023/06/20 09:06:37;;;;;;;;;;;27.60;44.60;;;;;;20830702;28;20012;-56
2023/06/20 09:16:40;;;;;;;;;;;27.70;44.30;;;;;;20830622;28;19925;-57
2023/06/20 09:26:41;;;;;;;;;;;27.70;44.20;;;;;;20828870;28;20116;-57
2023/06/20 09:36:42;;;;;;;;;;;27.60;44.80;;;;;;20845827;28;19972;-60
2023/06/20 09:46:42;;;;;;;;;;;27.70;44.20;;;;;;20845834;28;19925;-60
2023/06/20 09:56:45;;;;;;;;;;;27.80;44.10;;;;;;20844959;28;20274;-58
2023/06/20 10:06:46;;;;;;;;;;;27.60;44.60;;;;;;20876762;28;19976;-58
2023/06/20 10:16:50;;;;;;;;;;;27.50;43.40;;;;;;20924320;28;19925;-59
2023/06/20 10:26:55;;;;;;;;;;;27.20;44.20;;;;;;20921568;28;19924;-56
2023/06/20 10:37:28;;;;;;;;;;;27.10;44.40;;;;;;20922779;28;20294;-58
2023/06/20 10:47:28;;;;;;;;;;;27.00;44.00;;;;;;20909942;28;19924;-58
2023/06/20 10:57:29;;;;;;;;;;;27.00;44.00;;;;;;20921946;28;19925;-57
2023/06/20 11:07:29;;;;;;;;;;;26.80;44.40;;;;;;20919770;28;19929;-59
2023/06/20 11:17:31;;;;;;;;;;;27.30;43.60;;;;;;20920739;28;20433;-56
2023/06/20 11:27:33;;;;;;;;;;;27.80;42.10;;;;;;20920843;28;19925;-57
2023/06/20 11:37:33;;;;;;;;;;;28.20;41.10;;;;;;20974525;28;20262;-56
2023/06/20 11:47:34;;;;;;;;;;;28.10;41.00;;;;;;21000823;28;19925;-56
2023/06/20 11:57:35;;;;;;;;;;;28.40;40.40;;;;;;20999565;28;19924;-57
2023/06/20 12:07:53;;;;;;;;;;;28.40;40.50;;;;;;21000045;28;20313;-57
2023/06/20 12:17:53;;;;;;;;;;;28.70;39.30;;;;;;20999253;28;19924;-56
2023/06/20 12:27:54;;;;;;;;;;;28.80;37.80;;;;;;20997583;28;20381;-57
2023/06/20 12:37:55;;;;;;;;;;;28.60;38.70;;;;;;20996024;28;20027;-57
2023/06/20 12:47:55;;;;;;;;;;;28.80;38.90;;;;;;20995467;28;20346;-57
2023/06/20 12:57:57;;;;;;;;;;;29.10;38.20;;;;;;20993563;28;19933;-56
2023/06/20 13:07:57;;;;;;;;;;;29.10;37.60;;;;;;20994922;28;20282;-56
2023/06/20 13:18:01;;;;;;;;;;;29.20;37.60;;;;;;20995786;28;19924;-57
2023/06/20 13:28:01;;;;;;;;;;;29.30;37.70;;;;;;20993917;28;19924;-57
2023/06/20 13:38:03;;;;;;;;;;;29.40;37.10;;;;;;20995239;28;19982;-57
2023/06/20 13:48:03;;;;;;;;;;;29.10;38.20;;;;;;20993928;28;19925;-57
2023/06/20 13:58:04;;;;;;;;;;;29.00;38.10;;;;;;20993893;28;19982;-58
2023/06/20 14:08:05;;;;;;;;;;;28.90;38.00;;;;;;20993866;28;19931;-57
2023/06/20 14:18:05;;;;;;;;;;;29.10;37.70;;;;;;20999606;28;19978;-57
2023/06/20 14:28:06;;;;;;;;;;;29.20;38.50;;;;;;21006670;28;19954;-57
2023/06/20 14:38:07;;;;;;;;;;;29.40;38.30;;;;;;21007596;28;19932;-57
2023/06/20 14:48:08;;;;;;;;;;;29.60;37.60;;;;;;21007061;28;19977;-57
2023/06/20 14:58:09;;;;;;;;;;;29.50;37.20;;;;;;21005880;28;20011;-57
2023/06/20 15:08:10;;;;;;;;;;;29.50;37.70;;;;;;21005418;28;20373;-57
2023/06/20 15:18:11;;;;;;;;;;;29.40;37.60;;;;;;21004352;28;19932;-57
2023/06/20 15:28:11;;;;;;;;;;;29.40;36.90;;;;;;21000789;28;19931;-57
2023/06/20 15:38:12;;;;;;;;;;;29.60;36.40;;;;;;21000092;28;19924;-57
2023/06/20 15:48:13;;;;;;;;;;;29.40;37.20;;;;;;20999910;28;19935;-57
2023/06/20 15:58:13;;;;;;;;;;;29.30;37.80;;;;;;21000232;28;20300;-59
2023/06/20 16:08:15;;;;;;;;;;;28.80;38.80;;;;;;20997564;28;19925;-55
2023/06/20 16:18:16;;;;;;;;;;;28.80;37.60;;;;;;20997264;28;19924;-57
2023/06/20 16:28:16;;;;;;;;;;;28.70;37.80;;;;;;20999536;28;19939;-58
2023/06/20 16:38:17;;;;;;;;;;;28.80;37.70;;;;;;20996496;28;19924;-56
2023/06/20 16:48:17;;;;;;;;;;;28.70;37.60;;;;;;20997580;28;19925;-55
2023/06/20 16:58:18;;;;;;;;;;;28.70;37.60;;;;;;20995497;28;19925;-56
2023/06/20 17:08:19;;;;;;;;;;;28.70;37.00;;;;;;20996208;28;19932;-56
2023/06/20 17:18:20;;;;;;;;;;;28.50;37.30;;;;;;20995851;28;19960;-58
2023/06/20 17:28:21;;;;;;;;;;;28.60;37.70;;;;;;20994909;28;19972;-53
2023/06/20 17:38:22;;;;;;;;;;;28.50;37.60;;;;;;20995573;28;19932;-56
2023/06/20 17:48:23;;;;;;;;;;;28.30;37.40;;;;;;20993536;28;19943;-56
2023/06/20 17:58:23;;;;;;;;;;;28.30;37.60;;;;;;21009054;28;20404;-56
2023/06/20 18:08:24;;;;;;;;;;;28.10;38.70;;;;;;21008727;28;19931;-59
2023/06/20 18:18:24;;;;;;;;;;;28.00;38.30;;;;;;21009316;28;20455;-57
2023/06/20 18:28:25;;;;;;;;;;;27.80;39.50;;;;;;21007307;28;19924;-58
2023/06/20 18:38:26;;;;;;;;;;;27.60;39.50;;;;;;21007457;28;20004;-58
2023/06/20 18:48:26;;;;;;;;;;;27.40;39.60;;;;;;21006579;28;19928;-60
2023/06/20 18:58:27;;;;;;;;;;;27.30;39.90;;;;;;21005929;28;19976;-58
2023/06/20 19:08:28;;;;;;;;;;;27.20;40.20;;;;;;21005056;28;19977;-57
2023/06/20 19:18:28;;;;;;;;;;;27.10;39.80;;;;;;21004283;28;19978;-56
2023/06/20 19:28:29;;;;;;;;;;;27.10;39.90;;;;;;21001322;28;19969;-55
2023/06/20 19:38:30;;;;;;;;;;;26.90;40.20;;;;;;21001795;28;20003;-56
2023/06/20 19:48:30;;;;;;;;;;;26.60;40.80;;;;;;21001207;28;19939;-56
2023/06/20 19:58:32;;;;;;;;;;;26.30;41.70;;;;;;21000055;28;20002;-57
2023/06/20 20:08:32;;;;;;;;;;;26.20;41.90;;;;;;20998914;28;19925;-57
2023/06/20 20:18:33;;;;;;;;;;;25.90;41.90;;;;;;20998654;28;19930;-56
2023/06/20 20:28:35;;;;;;;;;;;26.10;41.80;;;;;;20998363;28;19930;-58
2023/06/20 20:38:37;;;;;;;;;;;25.80;42.30;;;;;;20997871;28;20142;-57
2023/06/20 20:48:38;;;;;;;;;;;25.70;42.80;;;;;;20997728;28;19950;-56
2023/06/20 20:58:38;;;;;;;;;;;25.60;42.80;;;;;;20997232;28;19925;-57
2023/06/20 21:08:39;;;;;;;;;;;25.60;42.80;;;;;;20996166;28;19931;-56
2023/06/20 21:18:40;;;;;;;;;;;25.40;42.00;;;;;;20996503;28;20386;-57
2023/06/20 21:28:40;;;;;;;;;;;25.50;41.60;;;;;;21005851;28;19931;-58
2023/06/20 21:38:41;;;;;;;;;;;25.40;41.70;;;;;;21011678;28;19924;-58
2023/06/20 21:48:41;;;;;;;;;;;25.10;41.80;;;;;;21012038;28;20487;-57
2023/06/20 21:58:42;;;;;;;;;;;25.20;42.30;;;;;;21010806;28;19924;-56
2023/06/20 22:08:43;;;;;;;;;;;25.10;42.50;;;;;;21010342;28;19932;-56
2023/06/20 22:18:43;;;;;;;;;;;25.00;42.50;;;;;;21009176;28;20046;-55
2023/06/20 22:28:44;;;;;;;;;;;25.10;42.50;;;;;;21007674;28;19924;-56
2023/06/20 22:38:44;;;;;;;;;;;25.00;42.30;;;;;;21007651;28;19975;-55
2023/06/20 22:48:45;;;;;;;;;;;25.00;42.60;;;;;;21007876;28;19964;-55
2023/06/20 22:58:46;;;;;;;;;;;24.90;43.70;;;;;;21006976;28;20027;-56
2023/06/20 23:08:46;;;;;;;;;;;24.70;44.00;;;;;;21004563;28;19981;-55
2023/06/20 23:18:48;;;;;;;;;;;24.60;43.90;;;;;;21003551;28;19925;-53
2023/06/20 23:28:51;;;;;;;;;;;24.60;43.40;;;;;;21003460;28;20401;-55
2023/06/20 23:38:53;;;;;;;;;;;24.60;43.20;;;;;;21003702;28;19947;-55
2023/06/20 23:48:54;;;;;;;;;;;24.50;43.80;;;;;;21001872;28;19924;-55
2023/06/20 23:58:55;;;;;;;;;;;24.40;43.70;;;;;;21001989;28;19924;-54
